sensor_id;sensor_type;location;lat;lon;timestamp;temperature;humidity
13713;DHT22;6928;50.546;7.120;2024-02-21T00:02:07;8.95;72.14
13713;DHT22;6928;50.546;7.120;2024-02-21T00:04:33;8.95;72.35
13713;DHT22;6928;50.546;7.120;2024-02-21T00:07:02;8.91;72.38
13713;DHT22;6928;50.546;7.120;2024-02-21T00:09:29;8.89;72.60
13713;DHT22;6928;50.546;7.120;2024-02-21T00:11:57;8.87;72.36
13713;DHT22;6928;50.546;7.120;2024-02-21T00:14:25;8.91;72.42
13713;DHT22;6928;50.546;7.120;2024-02-21T00:16:51;8.87;72.87
13713;DHT22;6928;50.546;7.120;2024-02-21T00:19:18;8.89;72.60
13713;DHT22;6928;50.546;7.120;2024-02-21T00:21:45;8.91;72.57
13713;DHT22;6928;50.546;7.120;2024-02-21T00:24:11;8.89;73.17
13713;DHT22;6928;50.546;7.120;2024-02-21T00:26:38;8.85;72.81
13713;DHT22;6928;50.546;7.120;2024-02-21T00:29:06;8.85;72.84
13713;DHT22;6928;50.546;7.120;2024-02-21T00:31:33;8.89;72.82
13713;DHT22;6928;50.546;7.120;2024-02-21T00:34:00;8.95;72.90
13713;DHT22;6928;50.546;7.120;2024-02-21T00:36:26;8.88;72.66
13713;DHT22;6928;50.546;7.120;2024-02-21T00:38:53;8.88;72.97
13713;DHT22;6928;50.546;7.120;2024-02-21T00:41:20;8.88;72.79
13713;DHT22;6928;50.546;7.120;2024-02-21T00:43:47;8.82;73.12
13713;DHT22;6928;50.546;7.120;2024-02-21T00:46:16;8.91;72.78
13713;DHT22;6928;50.546;7.120;2024-02-21T00:48:43;9.01;72.57
13713;DHT22;6928;50.546;7.120;2024-02-21T00:51:10;8.92;72.14
13713;DHT22;6928;50.546;7.120;2024-02-21T00:53:37;8.97;72.24
13713;DHT22;6928;50.546;7.120;2024-02-21T00:56:04;8.99;73.03
13713;DHT22;6928;50.546;7.120;2024-02-21T00:58:31;8.97;73.07
13713;DHT22;6928;50.546;7.120;2024-02-21T01:00:58;8.89;73.31
13713;DHT22;6928;50.546;7.120;2024-02-21T01:03:26;8.89;73.83
13713;DHT22;6928;50.546;7.120;2024-02-21T01:05:53;8.84;73.87
13713;DHT22;6928;50.546;7.120;2024-02-21T01:08:19;8.85;73.78
13713;DHT22;6928;50.546;7.120;2024-02-21T01:10:46;8.89;73.94
13713;DHT22;6928;50.546;7.120;2024-02-21T01:13:13;8.84;73.84
13713;DHT22;6928;50.546;7.120;2024-02-21T01:15:40;8.80;73.60
13713;DHT22;6928;50.546;7.120;2024-02-21T01:18:06;9.01;73.76
13713;DHT22;6928;50.546;7.120;2024-02-21T01:20:34;8.98;73.64
13713;DHT22;6928;50.546;7.120;2024-02-21T01:23:01;8.78;74.16
13713;DHT22;6928;50.546;7.120;2024-02-21T01:25:28;8.89;74.24
13713;DHT22;6928;50.546;7.120;2024-02-21T01:27:54;8.97;74.44
13713;DHT22;6928;50.546;7.120;2024-02-21T01:30:21;8.88;74.08
13713;DHT22;6928;50.546;7.120;2024-02-21T01:32:48;8.93;74.43
13713;DHT22;6928;50.546;7.120;2024-02-21T01:35:15;8.84;74.78
13713;DHT22;6928;50.546;7.120;2024-02-21T01:37:43;8.75;75.20
13713;DHT22;6928;50.546;7.120;2024-02-21T01:40:11;8.95;74.50
13713;DHT22;6928;50.546;7.120;2024-02-21T01:42:38;8.85;74.15
13713;DHT22;6928;50.546;7.120;2024-02-21T01:45:06;8.89;73.84
13713;DHT22;6928;50.546;7.120;2024-02-21T01:47:37;8.95;73.71
13713;DHT22;6928;50.546;7.120;2024-02-21T01:50:05;8.91;73.61
13713;DHT22;6928;50.546;7.120;2024-02-21T01:52:33;8.84;74.42
13713;DHT22;6928;50.546;7.120;2024-02-21T01:55:03;8.87;74.28
13713;DHT22;6928;50.546;7.120;2024-02-21T01:57:30;8.91;74.04
13713;DHT22;6928;50.546;7.120;2024-02-21T01:59:57;8.84;73.86
13713;DHT22;6928;50.546;7.120;2024-02-21T02:02:24;8.95;74.06
13713;DHT22;6928;50.546;7.120;2024-02-21T02:04:51;8.92;74.01
13713;DHT22;6928;50.546;7.120;2024-02-21T02:07:19;8.89;74.31
13713;DHT22;6928;50.546;7.120;2024-02-21T02:09:45;8.70;75.40
13713;DHT22;6928;50.546;7.120;2024-02-21T02:12:13;8.81;75.19
13713;DHT22;6928;50.546;7.120;2024-02-21T02:14:40;8.70;74.72
13713;DHT22;6928;50.546;7.120;2024-02-21T02:17:07;8.81;75.24
13713;DHT22;6928;50.546;7.120;2024-02-21T02:19:34;8.78;75.21
13713;DHT22;6928;50.546;7.120;2024-02-21T02:22:11;8.74;75.20
13713;DHT22;6928;50.546;7.120;2024-02-21T02:24:41;8.82;74.65
13713;DHT22;6928;50.546;7.120;2024-02-21T02:27:08;8.70;75.16
13713;DHT22;6928;50.546;7.120;2024-02-21T02:29:35;8.65;75.31
13713;DHT22;6928;50.546;7.120;2024-02-21T02:32:02;8.88;74.93
13713;DHT22;6928;50.546;7.120;2024-02-21T02:34:29;8.81;75.44
13713;DHT22;6928;50.546;7.120;2024-02-21T02:36:56;8.81;75.33
13713;DHT22;6928;50.546;7.120;2024-02-21T02:39:23;8.87;74.98
13713;DHT22;6928;50.546;7.120;2024-02-21T02:41:51;8.72;75.27
13713;DHT22;6928;50.546;7.120;2024-02-21T02:44:18;8.88;75.31
13713;DHT22;6928;50.546;7.120;2024-02-21T02:46:44;8.84;75.39
13713;DHT22;6928;50.546;7.120;2024-02-21T02:49:11;8.74;75.78
13713;DHT22;6928;50.546;7.120;2024-02-21T02:51:41;8.67;75.95
13713;DHT22;6928;50.546;7.120;2024-02-21T02:54:09;8.71;75.69
13713;DHT22;6928;50.546;7.120;2024-02-21T02:56:35;8.74;75.59
13713;DHT22;6928;50.546;7.120;2024-02-21T02:59:03;8.68;76.25
13713;DHT22;6928;50.546;7.120;2024-02-21T03:01:34;8.72;76.10
13713;DHT22;6928;50.546;7.120;2024-02-21T03:04:00;8.80;75.81
13713;DHT22;6928;50.546;7.120;2024-02-21T03:06:27;8.67;76.07
13713;DHT22;6928;50.546;7.120;2024-02-21T03:08:54;8.47;76.67
13713;DHT22;6928;50.546;7.120;2024-02-21T03:11:21;8.61;76.86
13713;DHT22;6928;50.546;7.120;2024-02-21T03:13:54;8.50;76.73
13713;DHT22;6928;50.546;7.120;2024-02-21T03:16:23;8.60;76.41
13713;DHT22;6928;50.546;7.120;2024-02-21T03:18:50;8.75;76.46
13713;DHT22;6928;50.546;7.120;2024-02-21T03:21:16;8.43;77.43
13713;DHT22;6928;50.546;7.120;2024-02-21T03:23:43;8.40;77.87
13713;DHT22;6928;50.546;7.120;2024-02-21T03:26:10;8.36;78.11
13713;DHT22;6928;50.546;7.120;2024-02-21T03:28:36;8.30;78.29
13713;DHT22;6928;50.546;7.120;2024-02-21T03:31:05;8.39;77.87
13713;DHT22;6928;50.546;7.120;2024-02-21T03:33:33;8.58;77.08
13713;DHT22;6928;50.546;7.120;2024-02-21T03:36:00;8.53;77.11
13713;DHT22;6928;50.546;7.120;2024-02-21T03:38:26;8.49;76.77
13713;DHT22;6928;50.546;7.120;2024-02-21T03:40:53;8.50;77.31
13713;DHT22;6928;50.546;7.120;2024-02-21T03:43:20;8.39;76.59
13713;DHT22;6928;50.546;7.120;2024-02-21T03:45:47;8.50;76.66
13713;DHT22;6928;50.546;7.120;2024-02-21T03:48:13;8.47;76.64
13713;DHT22;6928;50.546;7.120;2024-02-21T03:50:42;8.37;77.06
13713;DHT22;6928;50.546;7.120;2024-02-21T03:53:08;8.26;77.60
13713;DHT22;6928;50.546;7.120;2024-02-21T03:55:36;8.27;77.63
13713;DHT22;6928;50.546;7.120;2024-02-21T03:58:03;8.20;77.46
13713;DHT22;6928;50.546;7.120;2024-02-21T04:00:29;8.25;77.33
13713;DHT22;6928;50.546;7.120;2024-02-21T04:02:56;8.34;76.92
13713;DHT22;6928;50.546;7.120;2024-02-21T04:05:23;8.23;77.01
13713;DHT22;6928;50.546;7.120;2024-02-21T04:07:51;8.32;77.01
13713;DHT22;6928;50.546;7.120;2024-02-21T04:10:18;8.10;77.87
13713;DHT22;6928;50.546;7.120;2024-02-21T04:12:44;8.23;77.25
13713;DHT22;6928;50.546;7.120;2024-02-21T04:15:11;8.20;77.48
13713;DHT22;6928;50.546;7.120;2024-02-21T04:17:38;8.26;77.39
13713;DHT22;6928;50.546;7.120;2024-02-21T04:20:06;8.23;77.49
13713;DHT22;6928;50.546;7.120;2024-02-21T04:22:34;8.22;77.78
13713;DHT22;6928;50.546;7.120;2024-02-21T04:25:03;8.29;77.40
13713;DHT22;6928;50.546;7.120;2024-02-21T04:27:29;8.34;76.89
13713;DHT22;6928;50.546;7.120;2024-02-21T04:29:57;8.13;77.59
13713;DHT22;6928;50.546;7.120;2024-02-21T04:32:24;8.23;77.76
13713;DHT22;6928;50.546;7.120;2024-02-21T04:34:52;8.49;76.58
13713;DHT22;6928;50.546;7.120;2024-02-21T04:37:20;8.33;76.73
13713;DHT22;6928;50.546;7.120;2024-02-21T04:39:48;8.49;76.11
13713;DHT22;6928;50.546;7.120;2024-02-21T04:42:16;8.44;75.91
13713;DHT22;6928;50.546;7.120;2024-02-21T04:44:43;8.46;75.94
13713;DHT22;6928;50.546;7.120;2024-02-21T04:47:10;8.39;75.91
13713;DHT22;6928;50.546;7.120;2024-02-21T04:49:38;8.50;76.04
13713;DHT22;6928;50.546;7.120;2024-02-21T04:52:05;8.40;76.30
13713;DHT22;6928;50.546;7.120;2024-02-21T04:54:32;8.37;77.05
13713;DHT22;6928;50.546;7.120;2024-02-21T04:57:00;8.32;76.92
13713;DHT22;6928;50.546;7.120;2024-02-21T04:59:28;8.34;76.27
13713;DHT22;6928;50.546;7.120;2024-02-21T05:01:56;8.41;75.95
13713;DHT22;6928;50.546;7.120;2024-02-21T05:04:24;8.49;76.07
13713;DHT22;6928;50.546;7.120;2024-02-21T05:06:50;8.46;75.90
13713;DHT22;6928;50.546;7.120;2024-02-21T05:09:17;8.51;75.98
13713;DHT22;6928;50.546;7.120;2024-02-21T05:11:44;8.50;75.90
13713;DHT22;6928;50.546;7.120;2024-02-21T05:14:10;8.50;76.06
13713;DHT22;6928;50.546;7.120;2024-02-21T05:16:40;8.47;76.15
13713;DHT22;6928;50.546;7.120;2024-02-21T05:19:06;8.47;75.89
13713;DHT22;6928;50.546;7.120;2024-02-21T05:21:33;8.44;76.02
13713;DHT22;6928;50.546;7.120;2024-02-21T05:24:00;8.44;75.79
13713;DHT22;6928;50.546;7.120;2024-02-21T05:26:28;8.47;75.86
13713;DHT22;6928;50.546;7.120;2024-02-21T05:28:55;8.49;75.80
13713;DHT22;6928;50.546;7.120;2024-02-21T05:31:22;8.43;75.85
13713;DHT22;6928;50.546;7.120;2024-02-21T05:33:50;8.46;75.83
13713;DHT22;6928;50.546;7.120;2024-02-21T05:36:17;8.49;75.86
13713;DHT22;6928;50.546;7.120;2024-02-21T05:38:44;8.46;75.95
13713;DHT22;6928;50.546;7.120;2024-02-21T05:41:11;8.46;75.82
13713;DHT22;6928;50.546;7.120;2024-02-21T05:43:37;8.43;76.01
13713;DHT22;6928;50.546;7.120;2024-02-21T05:46:04;8.47;75.97
13713;DHT22;6928;50.546;7.120;2024-02-21T05:48:31;8.47;76.05
13713;DHT22;6928;50.546;7.120;2024-02-21T05:51:01;8.54;76.18
13713;DHT22;6928;50.546;7.120;2024-02-21T05:53:28;8.40;76.46
13713;DHT22;6928;50.546;7.120;2024-02-21T05:55:55;8.33;76.74
13713;DHT22;6928;50.546;7.120;2024-02-21T05:58:21;8.32;76.26
13713;DHT22;6928;50.546;7.120;2024-02-21T06:00:48;8.43;75.69
13713;DHT22;6928;50.546;7.120;2024-02-21T06:03:15;8.44;75.76
13713;DHT22;6928;50.546;7.120;2024-02-21T06:05:42;8.34;75.73
13713;DHT22;6928;50.546;7.120;2024-02-21T06:08:10;8.33;75.61
13713;DHT22;6928;50.546;7.120;2024-02-21T06:10:37;8.53;76.05
13713;DHT22;6928;50.546;7.120;2024-02-21T06:13:03;8.40;75.53
13713;DHT22;6928;50.546;7.120;2024-02-21T06:15:30;8.33;75.45
13713;DHT22;6928;50.546;7.120;2024-02-21T06:17:57;8.33;74.90
13713;DHT22;6928;50.546;7.120;2024-02-21T06:20:23;8.37;75.08
13713;DHT22;6928;50.546;7.120;2024-02-21T06:22:50;8.46;75.01
13713;DHT22;6928;50.546;7.120;2024-02-21T06:25:18;8.37;75.32
13713;DHT22;6928;50.546;7.120;2024-02-21T06:27:45;8.34;74.53
13713;DHT22;6928;50.546;7.120;2024-02-21T06:30:13;8.41;74.00
13713;DHT22;6928;50.546;7.120;2024-02-21T06:32:40;8.37;74.18
13713;DHT22;6928;50.546;7.120;2024-02-21T06:35:06;8.37;74.27
13713;DHT22;6928;50.546;7.120;2024-02-21T06:37:33;8.40;74.39
13713;DHT22;6928;50.546;7.120;2024-02-21T06:40:00;8.34;74.42
13713;DHT22;6928;50.546;7.120;2024-02-21T06:42:28;8.36;74.52
13713;DHT22;6928;50.546;7.120;2024-02-21T06:44:55;8.32;74.74
13713;DHT22;6928;50.546;7.120;2024-02-21T06:47:22;8.29;75.08
13713;DHT22;6928;50.546;7.120;2024-02-21T06:49:49;8.36;74.78
13713;DHT22;6928;50.546;7.120;2024-02-21T06:52:17;8.36;74.72
13713;DHT22;6928;50.546;7.120;2024-02-21T06:54:45;8.47;74.89
13713;DHT22;6928;50.546;7.120;2024-02-21T06:57:13;8.39;75.54
13713;DHT22;6928;50.546;7.120;2024-02-21T06:59:42;8.40;75.30
13713;DHT22;6928;50.546;7.120;2024-02-21T07:02:09;8.23;75.20
13713;DHT22;6928;50.546;7.120;2024-02-21T07:04:35;8.22;75.73
13713;DHT22;6928;50.546;7.120;2024-02-21T07:07:02;8.34;75.39
13713;DHT22;6928;50.546;7.120;2024-02-21T07:09:29;8.34;74.99
13713;DHT22;6928;50.546;7.120;2024-02-21T07:11:57;8.30;74.42
13713;DHT22;6928;50.546;7.120;2024-02-21T07:14:24;8.26;74.53
13713;DHT22;6928;50.546;7.120;2024-02-21T07:16:52;8.26;73.24
13713;DHT22;6928;50.546;7.120;2024-02-21T07:19:19;8.33;73.04
13713;DHT22;6928;50.546;7.120;2024-02-21T07:21:46;8.26;73.09
13713;DHT22;6928;50.546;7.120;2024-02-21T07:24:13;8.23;73.34
13713;DHT22;6928;50.546;7.120;2024-02-21T07:26:41;8.30;72.97
13713;DHT22;6928;50.546;7.120;2024-02-21T07:29:08;8.27;73.43
13713;DHT22;6928;50.546;7.120;2024-02-21T07:31:40;8.29;73.05
13713;DHT22;6928;50.546;7.120;2024-02-21T07:34:09;8.30;72.92
13713;DHT22;6928;50.546;7.120;2024-02-21T07:36:36;8.32;72.52
13713;DHT22;6928;50.546;7.120;2024-02-21T07:39:04;8.22;72.53
13713;DHT22;6928;50.546;7.120;2024-02-21T07:41:31;8.32;71.71
13713;DHT22;6928;50.546;7.120;2024-02-21T07:44:00;8.34;71.69
13713;DHT22;6928;50.546;7.120;2024-02-21T07:46:26;8.33;71.98
13713;DHT22;6928;50.546;7.120;2024-02-21T07:48:53;8.32;72.15
13713;DHT22;6928;50.546;7.120;2024-02-21T07:51:21;8.30;72.28
13713;DHT22;6928;50.546;7.120;2024-02-21T07:53:48;8.39;71.83
13713;DHT22;6928;50.546;7.120;2024-02-21T07:56:15;8.41;71.91
13713;DHT22;6928;50.546;7.120;2024-02-21T07:58:42;8.34;72.01
13713;DHT22;6928;50.546;7.120;2024-02-21T08:01:09;8.49;71.31
13713;DHT22;6928;50.546;7.120;2024-02-21T08:03:35;8.40;71.41
13713;DHT22;6928;50.546;7.120;2024-02-21T08:06:03;8.32;70.91
13713;DHT22;6928;50.546;7.120;2024-02-21T08:08:32;8.36;71.30
13713;DHT22;6928;50.546;7.120;2024-02-21T08:10:59;8.43;71.53
13713;DHT22;6928;50.546;7.120;2024-02-21T08:13:26;8.43;71.00
13713;DHT22;6928;50.546;7.120;2024-02-21T08:15:54;8.49;71.22
13713;DHT22;6928;50.546;7.120;2024-02-21T08:18:20;8.54;71.11
13713;DHT22;6928;50.546;7.120;2024-02-21T08:20:47;8.63;70.99
13713;DHT22;6928;50.546;7.120;2024-02-21T08:23:16;8.46;70.10
13713;DHT22;6928;50.546;7.120;2024-02-21T08:25:44;8.56;70.51
13713;DHT22;6928;50.546;7.120;2024-02-21T08:28:11;8.68;70.74
13713;DHT22;6928;50.546;7.120;2024-02-21T08:30:38;8.65;70.66
13713;DHT22;6928;50.546;7.120;2024-02-21T08:33:05;8.64;70.18
13713;DHT22;6928;50.546;7.120;2024-02-21T08:35:32;8.65;70.52
13713;DHT22;6928;50.546;7.120;2024-02-21T08:37:59;8.75;70.41
13713;DHT22;6928;50.546;7.120;2024-02-21T08:40:25;8.88;70.44
13713;DHT22;6928;50.546;7.120;2024-02-21T08:42:53;8.89;70.08
13713;DHT22;6928;50.546;7.120;2024-02-21T08:45:20;8.72;69.82
13713;DHT22;6928;50.546;7.120;2024-02-21T08:47:47;8.87;69.58
13713;DHT22;6928;50.546;7.120;2024-02-21T08:50:13;8.91;69.36
13713;DHT22;6928;50.546;7.120;2024-02-21T08:52:40;8.98;69.14
13713;DHT22;6928;50.546;7.120;2024-02-21T08:55:08;9.07;69.12
13713;DHT22;6928;50.546;7.120;2024-02-21T08:57:35;9.14;69.18
13713;DHT22;6928;50.546;7.120;2024-02-21T09:00:06;9.11;69.19
13713;DHT22;6928;50.546;7.120;2024-02-21T09:02:36;9.21;69.02
13713;DHT22;6928;50.546;7.120;2024-02-21T09:05:04;9.29;68.63
13713;DHT22;6928;50.546;7.120;2024-02-21T09:07:31;9.22;68.51
13713;DHT22;6928;50.546;7.120;2024-02-21T09:09:58;9.25;67.72
13713;DHT22;6928;50.546;7.120;2024-02-21T09:12:25;9.16;67.66
13713;DHT22;6928;50.546;7.120;2024-02-21T09:14:52;9.22;67.85
13713;DHT22;6928;50.546;7.120;2024-02-21T09:17:20;9.22;67.21
13713;DHT22;6928;50.546;7.120;2024-02-21T09:19:47;9.19;66.70
13713;DHT22;6928;50.546;7.120;2024-02-21T09:22:14;9.19;66.94
13713;DHT22;6928;50.546;7.120;2024-02-21T09:24:40;9.32;67.37
13713;DHT22;6928;50.546;7.120;2024-02-21T09:27:07;9.43;66.74
13713;DHT22;6928;50.546;7.120;2024-02-21T09:29:34;9.44;67.37
13713;DHT22;6928;50.546;7.120;2024-02-21T09:32:01;9.53;67.05
13713;DHT22;6928;50.546;7.120;2024-02-21T09:34:30;9.57;66.49
13713;DHT22;6928;50.546;7.120;2024-02-21T09:36:57;9.54;66.32
13713;DHT22;6928;50.546;7.120;2024-02-21T09:39:24;9.46;66.82
13713;DHT22;6928;50.546;7.120;2024-02-21T09:41:55;9.56;66.14
13713;DHT22;6928;50.546;7.120;2024-02-21T09:44:24;9.56;65.71
13713;DHT22;6928;50.546;7.120;2024-02-21T09:47:02;9.43;66.61
13713;DHT22;6928;50.546;7.120;2024-02-21T09:49:32;9.56;66.11
13713;DHT22;6928;50.546;7.120;2024-02-21T09:52:02;9.77;64.80
13713;DHT22;6928;50.546;7.120;2024-02-21T09:54:30;9.82;64.61
13713;DHT22;6928;50.546;7.120;2024-02-21T09:56:57;9.73;64.14
13713;DHT22;6928;50.546;7.120;2024-02-21T09:59:24;9.72;63.60
13713;DHT22;6928;50.546;7.120;2024-02-21T10:01:51;9.87;63.72
13713;DHT22;6928;50.546;7.120;2024-02-21T10:04:20;9.79;63.02
13713;DHT22;6928;50.546;7.120;2024-02-21T10:06:49;9.93;63.22
13713;DHT22;6928;50.546;7.120;2024-02-21T10:09:23;10.01;63.25
13713;DHT22;6928;50.546;7.120;2024-02-21T10:11:50;10.07;63.38
13713;DHT22;6928;50.546;7.120;2024-02-21T10:14:17;10.27;62.83
13713;DHT22;6928;50.546;7.120;2024-02-21T10:16:44;10.33;62.87
13713;DHT22;6928;50.546;7.120;2024-02-21T10:19:18;10.33;62.71
13713;DHT22;6928;50.546;7.120;2024-02-21T10:22:01;10.30;62.10
13713;DHT22;6928;50.546;7.120;2024-02-21T10:24:29;10.34;62.38
13713;DHT22;6928;50.546;7.120;2024-02-21T10:27:02;10.31;61.77
13713;DHT22;6928;50.546;7.120;2024-02-21T10:29:29;10.30;61.17
13713;DHT22;6928;50.546;7.120;2024-02-21T10:32:05;10.24;61.51
13713;DHT22;6928;50.546;7.120;2024-02-21T10:34:32;10.27;61.79
13713;DHT22;6928;50.546;7.120;2024-02-21T10:37:02;10.25;61.47
13713;DHT22;6928;50.546;7.120;2024-02-21T10:39:30;10.44;61.22
13713;DHT22;6928;50.546;7.120;2024-02-21T10:42:00;10.46;61.52
13713;DHT22;6928;50.546;7.120;2024-02-21T10:44:28;10.54;61.52
13713;DHT22;6928;50.546;7.120;2024-02-21T10:46:56;10.44;60.98
13713;DHT22;6928;50.546;7.120;2024-02-21T10:49:24;10.54;61.26
13713;DHT22;6928;50.546;7.120;2024-02-21T10:51:58;10.64;61.13
13713;DHT22;6928;50.546;7.120;2024-02-21T10:54:43;10.58;61.16
13713;DHT22;6928;50.546;7.120;2024-02-21T10:57:13;10.58;61.40
13713;DHT22;6928;50.546;7.120;2024-02-21T10:59:40;10.64;61.86
13713;DHT22;6928;50.546;7.120;2024-02-21T11:02:07;10.64;60.89
13713;DHT22;6928;50.546;7.120;2024-02-21T11:04:35;10.61;61.08
13713;DHT22;6928;50.546;7.120;2024-02-21T11:07:03;10.72;61.53
13713;DHT22;6928;50.546;7.120;2024-02-21T11:09:32;10.76;60.92
13713;DHT22;6928;50.546;7.120;2024-02-21T11:12:03;10.77;60.68
13713;DHT22;6928;50.546;7.120;2024-02-21T11:14:31;10.82;61.03
13713;DHT22;6928;50.546;7.120;2024-02-21T11:17:01;10.88;60.69
13713;DHT22;6928;50.546;7.120;2024-02-21T11:19:29;10.93;61.00
13713;DHT22;6928;50.546;7.120;2024-02-21T11:21:57;10.86;60.98
13713;DHT22;6928;50.546;7.120;2024-02-21T11:24:28;10.85;60.93
13713;DHT22;6928;50.546;7.120;2024-02-21T11:26:55;10.96;61.00
13713;DHT22;6928;50.546;7.120;2024-02-21T11:29:26;10.93;60.98
13713;DHT22;6928;50.546;7.120;2024-02-21T11:31:54;10.93;61.03
13713;DHT22;6928;50.546;7.120;2024-02-21T11:34:22;10.95;61.31
13713;DHT22;6928;50.546;7.120;2024-02-21T11:36:51;10.73;60.88
13713;DHT22;6928;50.546;7.120;2024-02-21T11:39:21;10.65;61.51
13713;DHT22;6928;50.546;7.120;2024-02-21T11:42:01;10.69;62.08
13713;DHT22;6928;50.546;7.120;2024-02-21T11:44:30;10.80;61.79
13713;DHT22;6928;50.546;7.120;2024-02-21T11:46:57;11.31;64.40
13713;DHT22;6928;50.546;7.120;2024-02-21T11:49:25;11.07;61.65
13713;DHT22;6928;50.546;7.120;2024-02-21T11:51:58;10.73;61.70
13713;DHT22;6928;50.546;7.120;2024-02-21T11:54:26;10.64;62.37
13713;DHT22;6928;50.546;7.120;2024-02-21T11:56:53;10.79;62.08
13713;DHT22;6928;50.546;7.120;2024-02-21T11:59:20;10.77;62.14
13713;DHT22;6928;50.546;7.120;2024-02-21T12:01:48;10.77;61.77
13713;DHT22;6928;50.546;7.120;2024-02-21T12:04:18;10.82;61.97
13713;DHT22;6928;50.546;7.120;2024-02-21T12:06:46;10.77;61.45
13713;DHT22;6928;50.546;7.120;2024-02-21T12:09:14;10.86;61.03
13713;DHT22;6928;50.546;7.120;2024-02-21T12:11:41;10.79;61.18
13713;DHT22;6928;50.546;7.120;2024-02-21T12:14:08;10.79;61.58
13713;DHT22;6928;50.546;7.120;2024-02-21T12:16:35;10.82;61.45
13713;DHT22;6928;50.546;7.120;2024-02-21T12:19:04;10.85;61.37
13713;DHT22;6928;50.546;7.120;2024-02-21T12:21:33;10.91;61.03
13713;DHT22;6928;50.546;7.120;2024-02-21T12:24:12;10.77;61.19
13713;DHT22;6928;50.546;7.120;2024-02-21T12:26:39;11.03;61.11
13713;DHT22;6928;50.546;7.120;2024-02-21T12:29:06;11.00;61.65
13713;DHT22;6928;50.546;7.120;2024-02-21T12:31:35;11.02;61.01
13713;DHT22;6928;50.546;7.120;2024-02-21T12:34:01;10.88;60.91
13713;DHT22;6928;50.546;7.120;2024-02-21T12:36:30;10.73;61.29
13713;DHT22;6928;50.546;7.120;2024-02-21T12:38:57;10.65;61.59
13713;DHT22;6928;50.546;7.120;2024-02-21T12:41:24;10.71;61.54
13713;DHT22;6928;50.546;7.120;2024-02-21T12:43:52;10.79;61.40
13713;DHT22;6928;50.546;7.120;2024-02-21T12:46:19;10.79;61.24
13713;DHT22;6928;50.546;7.120;2024-02-21T12:48:46;10.73;61.39
13713;DHT22;6928;50.546;7.120;2024-02-21T12:51:13;10.66;60.67
13713;DHT22;6928;50.546;7.120;2024-02-21T12:53:42;10.69;60.55
13713;DHT22;6928;50.546;7.120;2024-02-21T12:56:09;10.77;60.85
13713;DHT22;6928;50.546;7.120;2024-02-21T12:58:35;10.77;60.41
13713;DHT22;6928;50.546;7.120;2024-02-21T13:01:03;10.72;60.19
13713;DHT22;6928;50.546;7.120;2024-02-21T13:03:32;10.92;60.57
13713;DHT22;6928;50.546;7.120;2024-02-21T13:05:59;10.95;60.68
13713;DHT22;6928;50.546;7.120;2024-02-21T13:08:25;10.93;59.88
13713;DHT22;6928;50.546;7.120;2024-02-21T13:10:54;11.02;60.02
13713;DHT22;6928;50.546;7.120;2024-02-21T13:13:21;11.00;59.33
13713;DHT22;6928;50.546;7.120;2024-02-21T13:15:48;10.95;58.09
13713;DHT22;6928;50.546;7.120;2024-02-21T13:18:14;11.03;58.42
13713;DHT22;6928;50.546;7.120;2024-02-21T13:20:41;11.15;59.22
13713;DHT22;6928;50.546;7.120;2024-02-21T13:23:08;11.33;59.51
13713;DHT22;6928;50.546;7.120;2024-02-21T13:25:35;11.36;58.70
13713;DHT22;6928;50.546;7.120;2024-02-21T13:28:04;11.28;57.20
13713;DHT22;6928;50.546;7.120;2024-02-21T13:30:30;11.30;57.82
13713;DHT22;6928;50.546;7.120;2024-02-21T13:32:57;11.30;57.99
13713;DHT22;6928;50.546;7.120;2024-02-21T13:35:24;11.33;59.79
13713;DHT22;6928;50.546;7.120;2024-02-21T13:37:51;11.37;59.92
13713;DHT22;6928;50.546;7.120;2024-02-21T13:40:17;11.41;58.86
13713;DHT22;6928;50.546;7.120;2024-02-21T13:42:44;11.54;56.52
13713;DHT22;6928;50.546;7.120;2024-02-21T13:45:12;11.65;57.47
13713;DHT22;6928;50.546;7.120;2024-02-21T13:47:40;11.70;56.56
13713;DHT22;6928;50.546;7.120;2024-02-21T13:50:07;11.68;55.31
13713;DHT22;6928;50.546;7.120;2024-02-21T13:52:35;11.71;53.05
13713;DHT22;6928;50.546;7.120;2024-02-21T13:55:02;11.75;54.24
13713;DHT22;6928;50.546;7.120;2024-02-21T13:57:29;11.77;53.57
13713;DHT22;6928;50.546;7.120;2024-02-21T13:59:56;11.81;52.92
13713;DHT22;6928;50.546;7.120;2024-02-21T14:02:24;11.84;53.07
13713;DHT22;6928;50.546;7.120;2024-02-21T14:04:51;11.73;53.83
13713;DHT22;6928;50.546;7.120;2024-02-21T14:07:17;11.81;53.43
13713;DHT22;6928;50.546;7.120;2024-02-21T14:09:44;11.78;52.88
13713;DHT22;6928;50.546;7.120;2024-02-21T14:12:11;11.81;52.08
13713;DHT22;6928;50.546;7.120;2024-02-21T14:14:38;11.81;52.93
13713;DHT22;6928;50.546;7.120;2024-02-21T14:17:04;11.84;52.74
13713;DHT22;6928;50.546;7.120;2024-02-21T14:19:32;11.89;50.97
13713;DHT22;6928;50.546;7.120;2024-02-21T14:21:59;11.84;51.56
13713;DHT22;6928;50.546;7.120;2024-02-21T14:24:27;11.78;51.72
13713;DHT22;6928;50.546;7.120;2024-02-21T14:26:54;11.78;51.12
13713;DHT22;6928;50.546;7.120;2024-02-21T14:29:21;11.81;51.79
13713;DHT22;6928;50.546;7.120;2024-02-21T14:31:48;11.75;51.98
13713;DHT22;6928;50.546;7.120;2024-02-21T14:34:15;11.75;52.27
13713;DHT22;6928;50.546;7.120;2024-02-21T14:36:43;11.74;50.75
13713;DHT22;6928;50.546;7.120;2024-02-21T14:39:10;11.74;51.39
13713;DHT22;6928;50.546;7.120;2024-02-21T14:41:37;11.75;50.90
13713;DHT22;6928;50.546;7.120;2024-02-21T14:44:05;11.68;50.48
13713;DHT22;6928;50.546;7.120;2024-02-21T14:46:31;11.65;51.45
13713;DHT22;6928;50.546;7.120;2024-02-21T14:48:58;11.63;51.27
13713;DHT22;6928;50.546;7.120;2024-02-21T14:51:25;11.63;51.75
13713;DHT22;6928;50.546;7.120;2024-02-21T14:53:53;11.64;52.10
13713;DHT22;6928;50.546;7.120;2024-02-21T14:56:20;11.60;51.86
13713;DHT22;6928;50.546;7.120;2024-02-21T14:58:48;11.51;52.31
13713;DHT22;6928;50.546;7.120;2024-02-21T15:01:15;11.48;51.90
13713;DHT22;6928;50.546;7.120;2024-02-21T15:03:42;11.40;52.94
13713;DHT22;6928;50.546;7.120;2024-02-21T15:06:09;11.37;53.17
13713;DHT22;6928;50.546;7.120;2024-02-21T15:08:37;11.37;53.81
13713;DHT22;6928;50.546;7.120;2024-02-21T15:11:05;11.31;54.15
13713;DHT22;6928;50.546;7.120;2024-02-21T15:13:33;11.26;54.01
13713;DHT22;6928;50.546;7.120;2024-02-21T15:16:00;11.20;54.17
13713;DHT22;6928;50.546;7.120;2024-02-21T15:18:26;11.24;54.23
13713;DHT22;6928;50.546;7.120;2024-02-21T15:20:54;11.19;54.19
13713;DHT22;6928;50.546;7.120;2024-02-21T15:23:21;11.16;54.42
13713;DHT22;6928;50.546;7.120;2024-02-21T15:25:50;11.10;54.32
13713;DHT22;6928;50.546;7.120;2024-02-21T15:28:18;11.10;53.88
13713;DHT22;6928;50.546;7.120;2024-02-21T15:30:45;11.10;54.70
13713;DHT22;6928;50.546;7.120;2024-02-21T15:33:11;11.15;54.42
13713;DHT22;6928;50.546;7.120;2024-02-21T15:35:38;11.16;54.53
13713;DHT22;6928;50.546;7.120;2024-02-21T15:38:05;11.06;54.49
13713;DHT22;6928;50.546;7.120;2024-02-21T15:40:32;11.20;53.76
13713;DHT22;6928;50.546;7.120;2024-02-21T15:43:01;11.05;54.24
13713;DHT22;6928;50.546;7.120;2024-02-21T15:45:29;11.06;54.47
13713;DHT22;6928;50.546;7.120;2024-02-21T15:47:56;11.06;55.04
13713;DHT22;6928;50.546;7.120;2024-02-21T15:50:23;11.00;54.83
13713;DHT22;6928;50.546;7.120;2024-02-21T15:52:49;11.02;54.93
13713;DHT22;6928;50.546;7.120;2024-02-21T15:55:16;10.95;55.30
13713;DHT22;6928;50.546;7.120;2024-02-21T15:57:43;10.92;55.42